sensor_id;sensor_type;location;lat;lon;timestamp;P1;durP1;ratioP1;P2;durP2;ratioP2
15281;SDS011;7742;44.320;19.820;2023-06-26T00:00:45;28.03;;;26.10;;
15281;SDS011;7742;44.320;19.820;2023-06-26T00:03:12;27.70;;;25.83;;
15281;SDS011;7742;44.320;19.820;2023-06-26T00:05:42;25.37;;;23.67;;
15281;SDS011;7742;44.320;19.820;2023-06-26T00:08:08;29.00;;;26.87;;
15281;SDS011;7742;44.320;19.820;2023-06-26T00:10:35;27.67;;;25.77;;
15281;SDS011;7742;44.320;19.820;2023-06-26T00:13:02;26.80;;;24.93;;
15281;SDS011;7742;44.320;19.820;2023-06-26T00:15:29;26.27;;;24.50;;
15281;SDS011;7742;44.320;19.820;2023-06-26T00:17:57;27.83;;;25.83;;
15281;SDS011;7742;44.320;19.820;2023-06-26T00:20:23;27.57;;;25.67;;
15281;SDS011;7742;44.320;19.820;2023-06-26T00:22:53;26.17;;;24.37;;
15281;SDS011;7742;44.320;19.820;2023-06-26T00:25:20;26.47;;;24.77;;
15281;SDS011;7742;44.320;19.820;2023-06-26T00:27:47;26.17;;;24.50;;
15281;SDS011;7742;44.320;19.820;2023-06-26T00:30:14;26.63;;;24.83;;
15281;SDS011;7742;44.320;19.820;2023-06-26T00:32:41;27.07;;;25.27;;
15281;SDS011;7742;44.320;19.820;2023-06-26T00:35:09;25.60;;;24.00;;
15281;SDS011;7742;44.320;19.820;2023-06-26T00:37:36;26.77;;;25.07;;
15281;SDS011;7742;44.320;19.820;2023-06-26T00:40:05;27.07;;;25.27;;
15281;SDS011;7742;44.320;19.820;2023-06-26T00:42:32;27.37;;;25.50;;
15281;SDS011;7742;44.320;19.820;2023-06-26T00:44:58;26.03;;;24.43;;
15281;SDS011;7742;44.320;19.820;2023-06-26T00:47:25;25.33;;;23.83;;
15281;SDS011;7742;44.320;19.820;2023-06-26T00:49:53;24.77;;;23.17;;
15281;SDS011;7742;44.320;19.820;2023-06-26T00:52:21;26.33;;;24.63;;
15281;SDS011;7742;44.320;19.820;2023-06-26T00:54:49;25.10;;;23.53;;
15281;SDS011;7742;44.320;19.820;2023-06-26T00:57:18;26.07;;;24.40;;
15281;SDS011;7742;44.320;19.820;2023-06-26T00:59:45;27.40;;;25.70;;
15281;SDS011;7742;44.320;19.820;2023-06-26T01:02:12;25.53;;;23.97;;
15281;SDS011;7742;44.320;19.820;2023-06-26T01:04:45;25.37;;;23.70;;
15281;SDS011;7742;44.320;19.820;2023-06-26T01:07:12;25.57;;;23.77;;
15281;SDS011;7742;44.320;19.820;2023-06-26T01:09:40;26.73;;;24.93;;
15281;SDS011;7742;44.320;19.820;2023-06-26T01:12:07;27.07;;;25.13;;
15281;SDS011;7742;44.320;19.820;2023-06-26T01:14:35;25.30;;;23.63;;
15281;SDS011;7742;44.320;19.820;2023-06-26T01:17:02;26.53;;;24.83;;
15281;SDS011;7742;44.320;19.820;2023-06-26T01:19:30;26.87;;;24.97;;
15281;SDS011;7742;44.320;19.820;2023-06-26T01:22:00;25.93;;;24.13;;
15281;SDS011;7742;44.320;19.820;2023-06-26T01:24:32;26.17;;;24.47;;
15281;SDS011;7742;44.320;19.820;2023-06-26T01:27:03;26.27;;;24.47;;
15281;SDS011;7742;44.320;19.820;2023-06-26T01:29:31;26.27;;;24.53;;
15281;SDS011;7742;44.320;19.820;2023-06-26T01:31:59;27.10;;;25.30;;
15281;SDS011;7742;44.320;19.820;2023-06-26T01:34:27;26.97;;;25.07;;
15281;SDS011;7742;44.320;19.820;2023-06-26T01:36:54;26.37;;;24.57;;
15281;SDS011;7742;44.320;19.820;2023-06-26T01:39:20;27.23;;;25.53;;
15281;SDS011;7742;44.320;19.820;2023-06-26T01:41:47;26.93;;;24.97;;
15281;SDS011;7742;44.320;19.820;2023-06-26T01:44:21;26.63;;;24.67;;
15281;SDS011;7742;44.320;19.820;2023-06-26T01:46:53;25.67;;;23.90;;
15281;SDS011;7742;44.320;19.820;2023-06-26T01:49:25;25.27;;;23.47;;
15281;SDS011;7742;44.320;19.820;2023-06-26T01:51:54;26.07;;;24.30;;
15281;SDS011;7742;44.320;19.820;2023-06-26T01:54:22;25.13;;;23.33;;
15281;SDS011;7742;44.320;19.820;2023-06-26T01:56:50;24.77;;;23.10;;
15281;SDS011;7742;44.320;19.820;2023-06-26T01:59:20;25.33;;;23.63;;
15281;SDS011;7742;44.320;19.820;2023-06-26T02:01:48;25.40;;;23.63;;
15281;SDS011;7742;44.320;19.820;2023-06-26T02:04:15;26.53;;;24.83;;
15281;SDS011;7742;44.320;19.820;2023-06-26T02:06:42;27.07;;;25.17;;
15281;SDS011;7742;44.320;19.820;2023-06-26T02:09:09;26.37;;;24.57;;
15281;SDS011;7742;44.320;19.820;2023-06-26T02:14:35;25.43;;;23.70;;
15281;SDS011;7742;44.320;19.820;2023-06-26T02:17:02;25.47;;;23.63;;
15281;SDS011;7742;44.320;19.820;2023-06-26T02:19:29;24.87;;;23.17;;
15281;SDS011;7742;44.320;19.820;2023-06-26T02:21:56;26.17;;;24.37;;
15281;SDS011;7742;44.320;19.820;2023-06-26T02:24:23;25.13;;;23.27;;
15281;SDS011;7742;44.320;19.820;2023-06-26T02:26:50;25.13;;;23.33;;
15281;SDS011;7742;44.320;19.820;2023-06-26T02:29:17;25.13;;;23.23;;
15281;SDS011;7742;44.320;19.820;2023-06-26T02:31:45;25.27;;;23.57;;
15281;SDS011;7742;44.320;19.820;2023-06-26T02:34:12;25.77;;;24.00;;
15281;SDS011;7742;44.320;19.820;2023-06-26T02:36:39;27.30;;;25.20;;
15281;SDS011;7742;44.320;19.820;2023-06-26T02:39:06;25.67;;;23.70;;
15281;SDS011;7742;44.320;19.820;2023-06-26T02:41:33;26.57;;;24.67;;
15281;SDS011;7742;44.320;19.820;2023-06-26T02:44:00;26.20;;;24.20;;
15281;SDS011;7742;44.320;19.820;2023-06-26T02:46:27;25.73;;;23.93;;
15281;SDS011;7742;44.320;19.820;2023-06-26T02:48:55;26.63;;;24.60;;
15281;SDS011;7742;44.320;19.820;2023-06-26T02:51:23;23.53;;;21.80;;
15281;SDS011;7742;44.320;19.820;2023-06-26T02:53:50;24.80;;;22.90;;
15281;SDS011;7742;44.320;19.820;2023-06-26T02:56:16;23.50;;;21.90;;
15281;SDS011;7742;44.320;19.820;2023-06-26T02:58:43;24.87;;;22.87;;
15281;SDS011;7742;44.320;19.820;2023-06-26T03:01:10;24.20;;;22.40;;
15281;SDS011;7742;44.320;19.820;2023-06-26T03:03:37;25.40;;;23.50;;
15281;SDS011;7742;44.320;19.820;2023-06-26T03:06:08;25.77;;;23.70;;
15281;SDS011;7742;44.320;19.820;2023-06-26T03:08:36;27.37;;;25.40;;
15281;SDS011;7742;44.320;19.820;2023-06-26T03:11:03;25.27;;;23.50;;
15281;SDS011;7742;44.320;19.820;2023-06-26T03:13:30;26.63;;;24.83;;
15281;SDS011;7742;44.320;19.820;2023-06-26T03:15:57;25.97;;;24.13;;
15281;SDS011;7742;44.320;19.820;2023-06-26T03:18:24;26.63;;;24.67;;
15281;SDS011;7742;44.320;19.820;2023-06-26T03:20:51;26.37;;;24.47;;
15281;SDS011;7742;44.320;19.820;2023-06-26T03:23:20;24.73;;;23.03;;
15281;SDS011;7742;44.320;19.820;2023-06-26T03:25:47;27.43;;;25.40;;
15281;SDS011;7742;44.320;19.820;2023-06-26T03:28:14;27.70;;;25.43;;
15281;SDS011;7742;44.320;19.820;2023-06-26T03:30:41;28.03;;;25.97;;
15281;SDS011;7742;44.320;19.820;2023-06-26T03:33:08;27.33;;;25.33;;
15281;SDS011;7742;44.320;19.820;2023-06-26T03:35:35;27.47;;;25.57;;
15281;SDS011;7742;44.320;19.820;2023-06-26T03:38:03;24.83;;;23.03;;
15281;SDS011;7742;44.320;19.820;2023-06-26T03:40:31;25.13;;;23.33;;
15281;SDS011;7742;44.320;19.820;2023-06-26T03:42:58;27.13;;;25.23;;
15281;SDS011;7742;44.320;19.820;2023-06-26T03:45:25;26.07;;;24.27;;
15281;SDS011;7742;44.320;19.820;2023-06-26T03:47:52;25.23;;;23.53;;
15281;SDS011;7742;44.320;19.820;2023-06-26T03:50:19;26.43;;;24.70;;
15281;SDS011;7742;44.320;19.820;2023-06-26T03:52:46;25.90;;;23.80;;
15281;SDS011;7742;44.320;19.820;2023-06-26T03:55:13;25.57;;;23.77;;
15281;SDS011;7742;44.320;19.820;2023-06-26T03:57:41;25.57;;;23.97;;
15281;SDS011;7742;44.320;19.820;2023-06-26T04:00:09;25.23;;;23.70;;
15281;SDS011;7742;44.320;19.820;2023-06-26T04:02:37;25.73;;;23.93;;
15281;SDS011;7742;44.320;19.820;2023-06-26T04:05:05;24.30;;;22.73;;
15281;SDS011;7742;44.320;19.820;2023-06-26T04:07:32;23.73;;;22.23;;
15281;SDS011;7742;44.320;19.820;2023-06-26T04:10:00;23.30;;;21.80;;
15281;SDS011;7742;44.320;19.820;2023-06-26T04:12:27;22.73;;;21.43;;
15281;SDS011;7742;44.320;19.820;2023-06-26T04:14:55;22.87;;;21.47;;
15281;SDS011;7742;44.320;19.820;2023-06-26T04:17:22;26.47;;;24.87;;
15281;SDS011;7742;44.320;19.820;2023-06-26T04:19:49;24.10;;;22.53;;
15281;SDS011;7742;44.320;19.820;2023-06-26T04:22:16;25.73;;;24.13;;
15281;SDS011;7742;44.320;19.820;2023-06-26T04:24:43;26.10;;;24.63;;
15281;SDS011;7742;44.320;19.820;2023-06-26T04:27:11;23.07;;;21.60;;
15281;SDS011;7742;44.320;19.820;2023-06-26T04:29:39;23.17;;;21.67;;
15281;SDS011;7742;44.320;19.820;2023-06-26T04:32:07;21.57;;;20.37;;
15281;SDS011;7742;44.320;19.820;2023-06-26T04:34:34;23.07;;;21.67;;
15281;SDS011;7742;44.320;19.820;2023-06-26T04:37:06;25.50;;;23.93;;
15281;SDS011;7742;44.320;19.820;2023-06-26T04:39:35;26.43;;;25.03;;
15281;SDS011;7742;44.320;19.820;2023-06-26T04:42:02;26.67;;;25.17;;
15281;SDS011;7742;44.320;19.820;2023-06-26T04:44:29;25.58;;;24.08;;
15281;SDS011;7742;44.320;19.820;2023-06-26T04:46:56;25.90;;;24.40;;
15281;SDS011;7742;44.320;19.820;2023-06-26T04:49:24;25.63;;;23.95;;
15281;SDS011;7742;44.320;19.820;2023-06-26T04:51:53;28.75;;;27.08;;
15281;SDS011;7742;44.320;19.820;2023-06-26T04:54:19;24.60;;;23.20;;
15281;SDS011;7742;44.320;19.820;2023-06-26T04:56:46;24.27;;;22.67;;
15281;SDS011;7742;44.320;19.820;2023-06-26T04:59:13;23.98;;;22.30;;
15281;SDS011;7742;44.320;19.820;2023-06-26T05:01:40;25.00;;;23.02;;
15281;SDS011;7742;44.320;19.820;2023-06-26T05:04:07;23.13;;;21.63;;
15281;SDS011;7742;44.320;19.820;2023-06-26T05:06:36;26.17;;;24.58;;
15281;SDS011;7742;44.320;19.820;2023-06-26T05:09:03;24.00;;;22.63;;
15281;SDS011;7742;44.320;19.820;2023-06-26T05:11:30;23.80;;;22.40;;
15281;SDS011;7742;44.320;19.820;2023-06-26T05:13:57;23.80;;;22.35;;
15281;SDS011;7742;44.320;19.820;2023-06-26T05:16:24;24.15;;;22.83;;
15281;SDS011;7742;44.320;19.820;2023-06-26T05:18:51;22.98;;;21.67;;
15281;SDS011;7742;44.320;19.820;2023-06-26T05:21:19;23.17;;;21.85;;
15281;SDS011;7742;44.320;19.820;2023-06-26T05:23:48;23.90;;;22.52;;
15281;SDS011;7742;44.320;19.820;2023-06-26T05:26:15;23.00;;;21.60;;
15281;SDS011;7742;44.320;19.820;2023-06-26T05:28:43;24.50;;;23.08;;
15281;SDS011;7742;44.320;19.820;2023-06-26T05:31:13;23.05;;;21.85;;
15281;SDS011;7742;44.320;19.820;2023-06-26T05:33:40;24.45;;;22.95;;
15281;SDS011;7742;44.320;19.820;2023-06-26T05:36:09;22.55;;;21.35;;
15281;SDS011;7742;44.320;19.820;2023-06-26T05:38:37;23.90;;;22.48;;
15281;SDS011;7742;44.320;19.820;2023-06-26T05:41:05;23.92;;;22.63;;
15281;SDS011;7742;44.320;19.820;2023-06-26T05:43:32;24.73;;;23.27;;
15281;SDS011;7742;44.320;19.820;2023-06-26T05:45:59;23.35;;;22.02;;
15281;SDS011;7742;44.320;19.820;2023-06-26T05:48:26;23.63;;;22.33;;
15281;SDS011;7742;44.320;19.820;2023-06-26T05:50:53;24.73;;;23.33;;
15281;SDS011;7742;44.320;19.820;2023-06-26T05:53:21;24.80;;;23.30;;
15281;SDS011;7742;44.320;19.820;2023-06-26T05:55:48;23.45;;;22.15;;
15281;SDS011;7742;44.320;19.820;2023-06-26T05:58:16;23.40;;;22.00;;
15281;SDS011;7742;44.320;19.820;2023-06-26T06:00:44;23.00;;;21.58;;
15281;SDS011;7742;44.320;19.820;2023-06-26T06:03:11;24.63;;;23.13;;
15281;SDS011;7742;44.320;19.820;2023-06-26T06:05:38;24.25;;;22.75;;
15281;SDS011;7742;44.320;19.820;2023-06-26T06:08:05;25.10;;;23.60;;
15281;SDS011;7742;44.320;19.820;2023-06-26T06:10:32;24.27;;;22.60;;
15281;SDS011;7742;44.320;19.820;2023-06-26T06:12:59;24.98;;;23.48;;
15281;SDS011;7742;44.320;19.820;2023-06-26T06:15:27;26.00;;;24.48;;
15281;SDS011;7742;44.320;19.820;2023-06-26T06:17:54;25.23;;;23.73;;
15281;SDS011;7742;44.320;19.820;2023-06-26T06:20:21;21.73;;;20.42;;
15281;SDS011;7742;44.320;19.820;2023-06-26T06:22:48;24.35;;;22.95;;
15281;SDS011;7742;44.320;19.820;2023-06-26T06:25:15;23.13;;;21.63;;
15281;SDS011;7742;44.320;19.820;2023-06-26T06:27:42;22.42;;;21.02;;
15281;SDS011;7742;44.320;19.820;2023-06-26T06:30:10;22.70;;;21.02;;
15281;SDS011;7742;44.320;19.820;2023-06-26T06:32:38;22.15;;;20.85;;
15281;SDS011;7742;44.320;19.820;2023-06-26T06:35:05;20.73;;;19.40;;
15281;SDS011;7742;44.320;19.820;2023-06-26T06:37:35;21.95;;;20.38;;
15281;SDS011;7742;44.320;19.820;2023-06-26T06:40:02;21.52;;;20.33;;
15281;SDS011;7742;44.320;19.820;2023-06-26T06:42:31;21.00;;;19.90;;
15281;SDS011;7742;44.320;19.820;2023-06-26T06:44:58;20.88;;;19.77;;
15281;SDS011;7742;44.320;19.820;2023-06-26T06:47:25;20.77;;;19.58;;
15281;SDS011;7742;44.320;19.820;2023-06-26T06:49:53;22.05;;;20.58;;
15281;SDS011;7742;44.320;19.820;2023-06-26T06:52:20;20.55;;;19.35;;
15281;SDS011;7742;44.320;19.820;2023-06-26T06:54:53;21.67;;;20.42;;
15281;SDS011;7742;44.320;19.820;2023-06-26T06:57:20;21.70;;;20.50;;
15281;SDS011;7742;44.320;19.820;2023-06-26T06:59:47;22.35;;;21.05;;
15281;SDS011;7742;44.320;19.820;2023-06-26T07:02:15;22.13;;;20.85;;
15281;SDS011;7742;44.320;19.820;2023-06-26T07:04:42;21.45;;;20.15;;
15281;SDS011;7742;44.320;19.820;2023-06-26T07:07:11;19.58;;;18.38;;
15281;SDS011;7742;44.320;19.820;2023-06-26T07:09:38;21.75;;;20.45;;
15281;SDS011;7742;44.320;19.820;2023-06-26T07:12:06;22.05;;;20.65;;
15281;SDS011;7742;44.320;19.820;2023-06-26T07:14:32;22.20;;;20.90;;
15281;SDS011;7742;44.320;19.820;2023-06-26T07:16:59;23.15;;;21.58;;
15281;SDS011;7742;44.320;19.820;2023-06-26T07:19:26;22.92;;;21.52;;
15281;SDS011;7742;44.320;19.820;2023-06-26T07:21:53;22.23;;;20.83;;
15281;SDS011;7742;44.320;19.820;2023-06-26T07:24:22;22.17;;;20.88;;
15281;SDS011;7742;44.320;19.820;2023-06-26T07:26:49;23.55;;;22.30;;
15281;SDS011;7742;44.320;19.820;2023-06-26T07:29:16;22.38;;;21.17;;
15281;SDS011;7742;44.320;19.820;2023-06-26T07:31:43;22.30;;;21.05;;
15281;SDS011;7742;44.320;19.820;2023-06-26T07:34:10;20.58;;;19.48;;
15281;SDS011;7742;44.320;19.820;2023-06-26T07:36:37;21.45;;;20.20;;
15281;SDS011;7742;44.320;19.820;2023-06-26T07:39:04;20.35;;;19.25;;
15281;SDS011;7742;44.320;19.820;2023-06-26T07:41:32;21.52;;;20.33;;
15281;SDS011;7742;44.320;19.820;2023-06-26T07:43:59;24.38;;;22.88;;
15281;SDS011;7742;44.320;19.820;2023-06-26T07:46:26;25.13;;;24.02;;
15281;SDS011;7742;44.320;19.820;2023-06-26T07:48:53;22.15;;;21.05;;
15281;SDS011;7742;44.320;19.820;2023-06-26T07:51:20;21.75;;;20.63;;
15281;SDS011;7742;44.320;19.820;2023-06-26T07:53:47;20.38;;;19.27;;
15281;SDS011;7742;44.320;19.820;2023-06-26T07:56:14;20.40;;;19.40;;
15281;SDS011;7742;44.320;19.820;2023-06-26T07:58:43;24.00;;;22.60;;
15281;SDS011;7742;44.320;19.820;2023-06-26T08:01:10;21.15;;;19.95;;
15281;SDS011;7742;44.320;19.820;2023-06-26T08:03:36;23.13;;;21.83;;
15281;SDS011;7742;44.320;19.820;2023-06-26T08:06:03;22.30;;;21.00;;
15281;SDS011;7742;44.320;19.820;2023-06-26T08:08:30;20.67;;;19.47;;
15281;SDS011;7742;44.320;19.820;2023-06-26T08:10:57;20.23;;;19.03;;
15281;SDS011;7742;44.320;19.820;2023-06-26T08:13:24;20.10;;;18.80;;
15281;SDS011;7742;44.320;19.820;2023-06-26T08:15:53;20.07;;;18.97;;
15281;SDS011;7742;44.320;19.820;2023-06-26T08:18:20;19.50;;;18.40;;
15281;SDS011;7742;44.320;19.820;2023-06-26T08:20:47;19.90;;;18.70;;
15281;SDS011;7742;44.320;19.820;2023-06-26T08:23:14;18.80;;;17.70;;
15281;SDS011;7742;44.320;19.820;2023-06-26T08:25:41;18.90;;;17.90;;
15281;SDS011;7742;44.320;19.820;2023-06-26T08:28:08;22.40;;;20.93;;
15281;SDS011;7742;44.320;19.820;2023-06-26T08:30:35;20.97;;;19.67;;
15281;SDS011;7742;44.320;19.820;2023-06-26T08:33:03;19.90;;;18.80;;
15281;SDS011;7742;44.320;19.820;2023-06-26T08:35:31;20.37;;;19.27;;
15281;SDS011;7742;44.320;19.820;2023-06-26T08:37:58;19.60;;;18.50;;
15281;SDS011;7742;44.320;19.820;2023-06-26T08:40:25;21.10;;;20.00;;
15281;SDS011;7742;44.320;19.820;2023-06-26T08:42:54;23.83;;;22.53;;
15281;SDS011;7742;44.320;19.820;2023-06-26T08:45:21;23.40;;;22.20;;
15281;SDS011;7742;44.320;19.820;2023-06-26T08:47:49;21.93;;;20.73;;
15281;SDS011;7742;44.320;19.820;2023-06-26T08:50:20;20.50;;;19.40;;
15281;SDS011;7742;44.320;19.820;2023-06-26T08:52:50;21.13;;;19.90;;
15281;SDS011;7742;44.320;19.820;2023-06-26T08:55:20;19.37;;;18.37;;
15281;SDS011;7742;44.320;19.820;2023-06-26T08:57:50;21.33;;;20.00;;
15281;SDS011;7742;44.320;19.820;2023-06-26T09:00:17;21.53;;;20.33;;
15281;SDS011;7742;44.320;19.820;2023-06-26T09:02:44;22.07;;;20.97;;
15281;SDS011;7742;44.320;19.820;2023-06-26T09:05:11;21.63;;;20.43;;
15281;SDS011;7742;44.320;19.820;2023-06-26T09:07:40;24.23;;;22.83;;
15281;SDS011;7742;44.320;19.820;2023-06-26T09:10:07;24.77;;;23.47;;
15281;SDS011;7742;44.320;19.820;2023-06-26T09:12:34;18.97;;;17.97;;
15281;SDS011;7742;44.320;19.820;2023-06-26T09:15:01;22.53;;;21.43;;
15281;SDS011;7742;44.320;19.820;2023-06-26T09:17:29;23.97;;;22.47;;
15281;SDS011;7742;44.320;19.820;2023-06-26T09:19:59;19.63;;;18.53;;
15281;SDS011;7742;44.320;19.820;2023-06-26T09:22:25;21.00;;;19.73;;
15281;SDS011;7742;44.320;19.820;2023-06-26T09:24:54;19.80;;;18.70;;
15281;SDS011;7742;44.320;19.820;2023-06-26T09:27:21;20.10;;;18.90;;
15281;SDS011;7742;44.320;19.820;2023-06-26T09:29:50;94.27;;;46.43;;
15281;SDS011;7742;44.320;19.820;2023-06-26T09:32:17;24.20;;;22.70;;
15281;SDS011;7742;44.320;19.820;2023-06-26T09:34:44;22.40;;;21.27;;
15281;SDS011;7742;44.320;19.820;2023-06-26T09:37:11;19.17;;;18.00;;
15281;SDS011;7742;44.320;19.820;2023-06-26T09:39:39;24.83;;;22.90;;
15281;SDS011;7742;44.320;19.820;2023-06-26T09:42:07;20.97;;;19.80;;
15281;SDS011;7742;44.320;19.820;2023-06-26T09:44:35;22.77;;;21.53;;
15281;SDS011;7742;44.320;19.820;2023-06-26T09:47:02;26.93;;;24.97;;
15281;SDS011;7742;44.320;19.820;2023-06-26T09:49:31;25.47;;;24.07;;
15281;SDS011;7742;44.320;19.820;2023-06-26T09:51:59;23.60;;;22.03;;
15281;SDS011;7742;44.320;19.820;2023-06-26T09:54:26;22.07;;;20.93;;
15281;SDS011;7742;44.320;19.820;2023-06-26T09:56:55;21.17;;;20.07;;
15281;SDS011;7742;44.320;19.820;2023-06-26T09:59:23;37.10;;;30.70;;
15281;SDS011;7742;44.320;19.820;2023-06-26T10:01:58;22.53;;;21.40;;
15281;SDS011;7742;44.320;19.820;2023-06-26T10:04:25;25.73;;;24.53;;
15281;SDS011;7742;44.320;19.820;2023-06-26T10:06:52;25.73;;;24.50;;
15281;SDS011;7742;44.320;19.820;2023-06-26T10:09:20;23.40;;;22.30;;
15281;SDS011;7742;44.320;19.820;2023-06-26T10:11:49;25.50;;;24.20;;
15281;SDS011;7742;44.320;19.820;2023-06-26T10:14:18;21.80;;;20.70;;
15281;SDS011;7742;44.320;19.820;2023-06-26T10:16:48;22.13;;;20.87;;
15281;SDS011;7742;44.320;19.820;2023-06-26T10:19:16;21.87;;;20.77;;
15281;SDS011;7742;44.320;19.820;2023-06-26T10:21:49;23.10;;;22.00;;
15281;SDS011;7742;44.320;19.820;2023-06-26T10:24:17;30.80;;;28.37;;
15281;SDS011;7742;44.320;19.820;2023-06-26T10:26:45;20.53;;;19.33;;
15281;SDS011;7742;44.320;19.820;2023-06-26T10:29:12;22.10;;;20.70;;
15281;SDS011;7742;44.320;19.820;2023-06-26T10:31:42;22.20;;;20.80;;
15281;SDS011;7742;44.320;19.820;2023-06-26T10:34:12;21.37;;;20.17;;
15281;SDS011;7742;44.320;19.820;2023-06-26T10:36:39;22.97;;;21.63;;
15281;SDS011;7742;44.320;19.820;2023-06-26T10:39:06;22.23;;;21.03;;
15281;SDS011;7742;44.320;19.820;2023-06-26T10:41:36;25.53;;;24.33;;
15281;SDS011;7742;44.320;19.820;2023-06-26T10:44:09;24.60;;;23.10;;
15281;SDS011;7742;44.320;19.820;2023-06-26T10:46:48;22.60;;;21.37;;
15281;SDS011;7742;44.320;19.820;2023-06-26T10:49:16;23.93;;;22.53;;
15281;SDS011;7742;44.320;19.820;2023-06-26T10:51:46;24.70;;;23.27;;
15281;SDS011;7742;44.320;19.820;2023-06-26T10:54:13;22.13;;;20.93;;
15281;SDS011;7742;44.320;19.820;2023-06-26T10:56:41;21.93;;;20.63;;
15281;SDS011;7742;44.320;19.820;2023-06-26T10:59:13;27.07;;;25.13;;
15281;SDS011;7742;44.320;19.820;2023-06-26T11:01:43;22.47;;;20.53;;
15281;SDS011;7742;44.320;19.820;2023-06-26T11:04:22;21.43;;;20.43;;
15281;SDS011;7742;44.320;19.820;2023-06-26T11:07:14;22.77;;;21.30;;
15281;SDS011;7742;44.320;19.820;2023-06-26T11:09:53;20.90;;;19.90;;
15281;SDS011;7742;44.320;19.820;2023-06-26T11:12:33;19.13;;;18.13;;
15281;SDS011;7742;44.320;19.820;2023-06-26T11:15:00;21.37;;;20.27;;
15281;SDS011;7742;44.320;19.820;2023-06-26T11:17:28;22.60;;;21.17;;
15281;SDS011;7742;44.320;19.820;2023-06-26T11:19:58;24.27;;;22.53;;
15281;SDS011;7742;44.320;19.820;2023-06-26T11:22:25;19.80;;;18.60;;
15281;SDS011;7742;44.320;19.820;2023-06-26T11:24:53;19.70;;;18.70;;
15281;SDS011;7742;44.320;19.820;2023-06-26T11:27:20;21.15;;;19.75;;
15281;SDS011;7742;44.320;19.820;2023-06-26T11:29:49;17.17;;;16.23;;
15281;SDS011;7742;44.320;19.820;2023-06-26T11:32:16;16.52;;;15.52;;
15281;SDS011;7742;44.320;19.820;2023-06-26T11:34:43;17.23;;;16.00;;
15281;SDS011;7742;44.320;19.820;2023-06-26T11:37:12;17.70;;;16.70;;
15281;SDS011;7742;44.320;19.820;2023-06-26T11:39:39;17.90;;;16.70;;
15281;SDS011;7742;44.320;19.820;2023-06-26T11:42:06;18.70;;;17.60;;
15281;SDS011;7742;44.320;19.820;2023-06-26T11:44:33;17.60;;;16.70;;
15281;SDS011;7742;44.320;19.820;2023-06-26T11:47:06;17.80;;;16.73;;
15281;SDS011;7742;44.320;19.820;2023-06-26T11:49:33;17.60;;;16.50;;
15281;SDS011;7742;44.320;19.820;2023-06-26T11:52:02;17.27;;;16.20;;
15281;SDS011;7742;44.320;19.820;2023-06-26T11:54:30;18.00;;;16.93;;
15281;SDS011;7742;44.320;19.820;2023-06-26T11:56:57;17.30;;;16.30;;
15281;SDS011;7742;44.320;19.820;2023-06-26T11:59:33;18.60;;;17.42;;
15281;SDS011;7742;44.320;19.820;2023-06-26T12:02:00;18.90;;;17.85;;
15281;SDS011;7742;44.320;19.820;2023-06-26T12:04:27;19.33;;;18.33;;
15281;SDS011;7742;44.320;19.820;2023-06-26T12:06:55;18.40;;;17.33;;
15281;SDS011;7742;44.320;19.820;2023-06-26T12:09:23;18.37;;;17.17;;
15281;SDS011;7742;44.320;19.820;2023-06-26T12:11:53;19.57;;;18.47;;
15281;SDS011;7742;44.320;19.820;2023-06-26T12:14:20;18.47;;;17.30;;
15281;SDS011;7742;44.320;19.820;2023-06-26T12:16:48;18.03;;;17.03;;
15281;SDS011;7742;44.320;19.820;2023-06-26T12:19:16;19.23;;;18.23;;
15281;SDS011;7742;44.320;19.820;2023-06-26T12:21:47;19.67;;;18.60;;
15281;SDS011;7742;44.320;19.820;2023-06-26T12:24:17;19.27;;;18.17;;
15281;SDS011;7742;44.320;19.820;2023-06-26T12:26:45;17.90;;;16.90;;
15281;SDS011;7742;44.320;19.820;2023-06-26T12:29:14;19.47;;;18.37;;
15281;SDS011;7742;44.320;19.820;2023-06-26T12:31:42;18.93;;;17.73;;
15281;SDS011;7742;44.320;19.820;2023-06-26T12:34:10;17.80;;;16.70;;
15281;SDS011;7742;44.320;19.820;2023-06-26T12:36:41;18.77;;;17.43;;
15281;SDS011;7742;44.320;19.820;2023-06-26T12:39:09;20.10;;;18.87;;
15281;SDS011;7742;44.320;19.820;2023-06-26T12:41:47;19.03;;;17.93;;
15281;SDS011;7742;44.320;19.820;2023-06-26T12:44:19;20.13;;;19.03;;
15281;SDS011;7742;44.320;19.820;2023-06-26T12:46:46;19.50;;;18.33;;
15281;SDS011;7742;44.320;19.820;2023-06-26T12:49:14;19.13;;;18.05;;
15281;SDS011;7742;44.320;19.820;2023-06-26T12:51:41;19.40;;;18.50;;
15281;SDS011;7742;44.320;19.820;2023-06-26T12:54:08;20.25;;;19.15;;
15281;SDS011;7742;44.320;19.820;2023-06-26T12:56:35;19.98;;;18.88;;
15281;SDS011;7742;44.320;19.820;2023-06-26T12:59:02;18.63;;;17.65;;
15281;SDS011;7742;44.320;19.820;2023-06-26T13:01:30;21.77;;;20.47;;
15281;SDS011;7742;44.320;19.820;2023-06-26T13:03:58;19.70;;;18.53;;
15281;SDS011;7742;44.320;19.820;2023-06-26T13:06:25;19.67;;;18.67;;
15281;SDS011;7742;44.320;19.820;2023-06-26T13:08:51;19.77;;;18.67;;
15281;SDS011;7742;44.320;19.820;2023-06-26T13:11:19;18.97;;;17.87;;
15281;SDS011;7742;44.320;19.820;2023-06-26T13:13:46;19.50;;;18.40;;
15281;SDS011;7742;44.320;19.820;2023-06-26T13:16:13;19.50;;;18.50;;
15281;SDS011;7742;44.320;19.820;2023-06-26T13:18:42;19.90;;;18.90;;
15281;SDS011;7742;44.320;19.820;2023-06-26T13:21:09;19.93;;;18.93;;
15281;SDS011;7742;44.320;19.820;2023-06-26T13:23:36;21.07;;;19.87;;
15281;SDS011;7742;44.320;19.820;2023-06-26T13:26:04;20.80;;;19.70;;
15281;SDS011;7742;44.320;19.820;2023-06-26T13:28:31;21.97;;;20.87;;
15281;SDS011;7742;44.320;19.820;2023-06-26T13:30:58;20.37;;;19.17;;
15281;SDS011;7742;44.320;19.820;2023-06-26T13:33:25;22.07;;;20.87;;
15281;SDS011;7742;44.320;19.820;2023-06-26T13:35:53;23.30;;;22.10;;
15281;SDS011;7742;44.320;19.820;2023-06-26T13:38:20;20.20;;;19.07;;
15281;SDS011;7742;44.320;19.820;2023-06-26T13:40:49;18.27;;;17.23;;
15281;SDS011;7742;44.320;19.820;2023-06-26T13:43:16;22.00;;;20.80;;
15281;SDS011;7742;44.320;19.820;2023-06-26T13:45:43;22.27;;;21.07;;
15281;SDS011;7742;44.320;19.820;2023-06-26T13:48:10;21.87;;;20.77;;
15281;SDS011;7742;44.320;19.820;2023-06-26T13:50:37;22.53;;;21.30;;
15281;SDS011;7742;44.320;19.820;2023-06-26T13:53:06;21.47;;;20.27;;
15281;SDS011;7742;44.320;19.820;2023-06-26T13:55:33;19.47;;;18.47;;
15281;SDS011;7742;44.320;19.820;2023-06-26T13:58:00;21.83;;;20.73;;
15281;SDS011;7742;44.320;19.820;2023-06-26T14:00:30;20.90;;;19.90;;
15281;SDS011;7742;44.320;19.820;2023-06-26T14:02:58;20.77;;;19.77;;
15281;SDS011;7742;44.320;19.820;2023-06-26T14:05:25;20.70;;;19.70;;
15281;SDS011;7742;44.320;19.820;2023-06-26T14:07:52;19.70;;;18.40;;
15281;SDS011;7742;44.320;19.820;2023-06-26T14:10:21;19.08;;;18.08;;
15281;SDS011;7742;44.320;19.820;2023-06-26T14:12:48;19.20;;;18.10;;
15281;SDS011;7742;44.320;19.820;2023-06-26T14:15:15;18.98;;;17.88;;
15281;SDS011;7742;44.320;19.820;2023-06-26T14:17:42;21.88;;;20.77;;
15281;SDS011;7742;44.320;19.820;2023-06-26T14:20:09;20.33;;;19.13;;
15281;SDS011;7742;44.320;19.820;2023-06-26T14:22:38;22.10;;;21.00;;
15281;SDS011;7742;44.320;19.820;2023-06-26T14:25:05;20.00;;;18.90;;
15281;SDS011;7742;44.320;19.820;2023-06-26T14:27:33;19.40;;;18.30;;